Time;durP1;ratioP1;P1;durP2;ratioP2;P2;SDS_P1;SDS_P2;PMS_P1;PMS_P2;Temp;Humidity;BMP_temperature;BMP_pressure;BME280_temperature;BME280_humidity;BME280_pressure;Samples;Min_cycle;Max_cycle;Signal;HPM_P1;HPM_P2
2023/12/18 00:01:59;;;;;;;24.13;11.73;;;;;;;29.64;59.95;101119.66;4967432;28;66630;-37
2023/12/18 00:04:29;;;;;;;25.27;11.88;;;;;;;29.65;56.73;101118.66;4948063;28;69173;-37
2023/12/18 00:06:59;;;;;;;22.98;12.38;;;;;;;29.62;57.81;101109.06;4973509;28;66386;-37
2023/12/18 00:09:29;;;;;;;23.30;12.15;;;;;;;29.79;57.20;101127.59;4962084;28;70482;-37
2023/12/18 00:11:59;;;;;;;25.33;13.13;;;;;;;29.76;61.23;101128.03;4967090;28;66123;-37
2023/12/18 00:14:29;;;;;;;21.70;12.52;;;;;;;29.83;57.81;101137.78;4946387;28;70092;-37
2023/12/18 00:16:59;;;;;;;23.58;12.52;;;;;;;29.70;58.88;101124.28;4951127;28;65420;-37
2023/12/18 00:19:29;;;;;;;29.90;13.27;;;;;;;29.86;61.33;101149.22;4961527;28;70301;-37
2023/12/18 00:21:59;;;;;;;30.30;13.77;;;;;;;29.92;58.58;101159.22;4959902;28;65679;-37
2023/12/18 00:24:29;;;;;;;26.65;13.63;;;;;;;29.84;59.95;101158.41;4957320;28;70370;-38
2023/12/18 00:26:59;;;;;;;37.47;15.77;;;;;;;29.81;60.40;101152.53;4955658;28;66081;-38
2023/12/18 00:29:29;;;;;;;27.67;15.05;;;;;;;29.90;62.33;101166.72;4947221;28;69846;-38
2023/12/18 00:31:59;;;;;;;28.90;13.32;;;;;;;29.90;60.70;101169.44;4960032;28;66898;-37
2023/12/18 00:34:29;;;;;;;31.40;14.32;;;;;;;29.97;60.22;101173.78;4966976;28;70496;-37
2023/12/18 00:36:59;;;;;;;30.92;12.68;;;;;;;29.99;60.17;101179.00;4947564;28;66613;-38
2023/12/18 00:39:29;;;;;;;30.02;13.05;;;;;;;30.01;62.53;101190.44;4966056;28;70982;-38
2023/12/18 00:41:59;;;;;;;24.48;12.52;;;;;;;29.68;60.83;101137.16;4966952;28;66543;-39
2023/12/18 00:44:29;;;;;;;26.42;12.52;;;;;;;30.05;61.30;101186.28;4962383;28;70416;-38
2023/12/18 00:46:59;;;;;;;25.30;12.82;;;;;;;30.08;62.07;101195.84;4946285;28;66262;-38
2023/12/18 00:49:32;;;;;;;26.35;12.98;;;;;;;30.06;61.69;101193.34;4960417;28;70341;-37
2023/12/18 00:52:02;;;;;;;31.10;13.38;;;;;;;30.09;62.14;101201.06;4971334;28;65795;-40
2023/12/18 00:54:32;;;;;;;33.28;14.32;;;;;;;30.16;61.47;101206.47;4949953;28;69847;-40
2023/12/18 00:57:03;;;;;;;26.00;13.32;;;;;;;30.25;60.38;101208.78;4968079;28;66613;-39
2023/12/18 00:59:32;;;;;;;27.17;12.95;;;;;;;30.31;60.20;101217.13;4971549;28;69383;-38
2023/12/18 01:02:03;;;;;;;25.83;14.73;;;;;;;30.35;59.59;101218.38;4961080;28;66107;-38
2023/12/18 01:04:33;;;;;;;21.13;13.98;;;;;;;30.38;59.26;101232.31;4966805;28;69656;-37
2023/12/18 01:07:03;;;;;;;25.45;13.82;;;;;;;30.42;59.43;101230.00;4968309;28;65994;-37
2023/12/18 01:09:33;;;;;;;31.35;13.85;;;;;;;30.43;59.66;101237.94;4977012;28;70553;-38
2023/12/18 01:12:04;;;;;;;27.70;14.20;;;;;;;30.47;59.67;101238.34;4946573;28;66952;-38
2023/12/18 01:14:34;;;;;;;28.15;13.35;;;;;;;30.49;59.27;101241.69;4967469;28;70539;-38
2023/12/18 01:17:04;;;;;;;25.70;13.32;;;;;;;30.44;59.79;101238.78;4967464;28;65682;-38
2023/12/18 01:19:34;;;;;;;22.38;13.25;;;;;;;30.39;59.78;101225.84;4966825;28;70029;-38
2023/12/18 01:22:04;;;;;;;26.25;14.57;;;;;;;30.56;59.54;101258.75;4971688;28;66039;-38
2023/12/18 01:24:34;;;;;;;21.85;12.35;;;;;;;30.57;59.38;101243.34;4971801;28;69654;-38
2023/12/18 01:27:04;;;;;;;24.17;12.88;;;;;;;30.60;59.81;101249.19;4972411;28;66449;-37
2023/12/18 01:29:38;;;;;;;21.52;13.95;;;;;;;30.30;59.81;101212.75;4974556;28;70405;-38
2023/12/18 01:32:09;;;;;;;22.00;14.00;;;;;;;30.62;59.52;101257.94;4971645;28;65901;-37
2023/12/18 01:34:39;;;;;;;18.80;13.38;;;;;;;30.65;59.79;101257.50;4967015;28;70265;-37
2023/12/18 01:37:09;;;;;;;15.25;13.15;;;;;;;30.63;59.82;101259.59;4965130;28;66248;-37
2023/12/18 01:39:39;;;;;;;23.50;14.45;;;;;;;30.56;59.63;101230.84;4965894;28;70295;-41
2023/12/18 01:42:09;;;;;;;18.58;13.38;;;;;;;30.65;59.40;101246.69;4970476;28;66677;-37
2023/12/18 01:44:39;;;;;;;18.10;13.65;;;;;;;30.67;59.62;101252.72;4973972;28;70304;-37
2023/12/18 01:47:09;;;;;;;19.58;13.65;;;;;;;30.71;59.37;101250.41;4964418;28;66208;-38
2023/12/18 01:49:39;;;;;;;19.58;13.27;;;;;;;30.71;59.97;101251.25;4930288;28;70229;-37
2023/12/18 01:52:10;;;;;;;19.63;13.13;;;;;;;30.73;59.71;101254.59;4973100;28;65880;-38
2023/12/18 01:54:40;;;;;;;17.95;13.93;;;;;;;30.68;59.73;101235.41;4967077;28;69639;-37
2023/12/18 01:57:12;;;;;;;19.42;14.02;;;;;;;30.75;59.82;101258.94;4946268;28;66496;-38
2023/12/18 01:59:42;;;;;;;21.40;14.63;;;;;;;30.77;59.92;101251.44;4965479;28;70579;-38
2023/12/18 02:02:12;;;;;;;20.48;14.20;;;;;;;30.77;59.67;101254.16;4951758;28;65085;-38
2023/12/18 02:04:43;;;;;;;19.02;14.48;;;;;;;30.75;59.52;101245.41;4972759;28;70345;-38
2023/12/18 02:07:13;;;;;;;22.05;15.35;;;;;;;30.79;60.05;101235.81;4970321;28;65878;-38
2023/12/18 02:09:43;;;;;;;24.80;15.00;;;;;;;30.82;59.68;101240.84;4967600;28;69541;-38
2023/12/18 02:12:13;;;;;;;20.77;15.55;;;;;;;30.72;59.90;101217.69;4968249;28;66057;-38
2023/12/18 02:14:43;;;;;;;22.67;15.77;;;;;;;30.75;59.76;101219.16;4969010;28;70568;-38
2023/12/18 02:17:13;;;;;;;20.27;15.13;;;;;;;30.86;60.06;101237.50;4963550;28;65656;-38
2023/12/18 02:19:43;;;;;;;25.08;16.98;;;;;;;30.87;60.05;101233.75;4958728;28;70581;-38
2023/12/18 02:22:13;;;;;;;24.00;17.17;;;;;;;30.88;60.15;101240.00;4963316;28;66191;-38
2023/12/18 02:24:43;;;;;;;22.48;16.35;;;;;;;30.90;59.81;101237.91;4975357;28;70612;-38
2023/12/18 02:27:14;;;;;;;18.25;16.27;;;;;;;30.91;59.88;101234.16;4965724;28;66712;-38
2023/12/18 02:29:44;;;;;;;29.10;16.55;;;;;;;30.78;59.93;101212.47;4946612;28;69416;-38
2023/12/18 02:32:14;;;;;;;17.67;15.77;;;;;;;30.93;59.77;101229.38;4967340;28;66906;-38
2023/12/18 02:34:44;;;;;;;23.42;17.45;;;;;;;30.96;60.24;101219.97;4971733;28;71024;-38
2023/12/18 02:37:14;;;;;;;19.77;17.13;;;;;;;30.94;60.15;101222.91;4961917;28;66525;-38
2023/12/18 02:39:45;;;;;;;20.80;16.10;;;;;;;30.97;59.60;101222.47;4971606;28;70372;-38
2023/12/18 02:42:15;;;;;;;19.90;16.67;;;;;;;30.98;59.87;101218.72;4945405;28;66464;-38
2023/12/18 02:44:45;;;;;;;21.95;16.83;;;;;;;30.99;59.65;101225.81;4963381;28;69864;-43
2023/12/18 02:47:15;;;;;;;22.30;16.42;;;;;;;30.98;60.08;101224.16;4963844;28;65706;-38
2023/12/18 02:49:45;;;;;;;21.92;17.70;;;;;;;30.90;59.93;101205.41;4967552;28;70427;-38
2023/12/18 02:52:15;;;;;;;24.65;17.95;;;;;;;31.02;59.55;101219.13;4966651;28;65824;-38
2023/12/18 02:54:45;;;;;;;25.30;18.50;;;;;;;31.07;59.91;101239.13;4972061;28;69338;-38
2023/12/18 02:57:15;;;;;;;22.55;18.27;;;;;;;31.07;59.74;101231.00;4971016;28;65431;-38
2023/12/18 02:59:45;;;;;;;19.13;16.38;;;;;;;31.10;60.02;101227.03;4966241;28;67971;-38
2023/12/18 03:02:15;;;;;;;22.80;17.05;;;;;;;31.09;60.26;101220.78;4975460;28;65916;-38
2023/12/18 03:04:45;;;;;;;22.58;17.20;;;;;;;31.11;59.69;101221.38;4970607;28;69714;-38
2023/12/18 03:07:16;;;;;;;25.55;17.38;;;;;;;31.08;59.96;101215.56;4965950;28;66247;-38
2023/12/18 03:09:46;;;;;;;20.88;17.58;;;;;;;31.15;59.72;101229.94;4948018;28;69838;-38
2023/12/18 03:12:16;;;;;;;21.58;18.05;;;;;;;31.16;59.85;101216.16;4886965;28;2228792;-38
2023/12/18 03:14:46;;;;;;;23.02;16.52;;;;;;;31.19;59.96;101219.47;4963130;28;69959;-38
2023/12/18 03:17:16;;;;;;;24.17;16.38;;;;;;;31.17;60.03;101207.00;4964298;28;65727;-38
2023/12/18 03:19:46;;;;;;;22.17;16.60;;;;;;;31.23;59.91;101209.88;4964818;28;70009;-38
2023/12/18 03:22:16;;;;;;;25.45;17.13;;;;;;;31.22;60.07;101216.34;4954068;28;66073;-37
2023/12/18 03:24:46;;;;;;;19.88;16.20;;;;;;;31.26;59.79;101220.28;4970165;28;70063;-37
2023/12/18 03:27:16;;;;;;;18.63;15.50;;;;;;;31.27;59.89;101219.25;4952593;28;66225;-38
2023/12/18 03:29:46;;;;;;;25.77;16.88;;;;;;;31.15;59.85;101200.94;4969294;28;69771;-38
2023/12/18 03:32:16;;;;;;;22.48;16.88;;;;;;;31.29;60.11;101214.44;4963050;28;65364;-38
2023/12/18 03:34:47;;;;;;;19.20;15.82;;;;;;;31.25;59.86;101196.94;4959323;28;69935;-38
2023/12/18 03:37:16;;;;;;;19.38;15.52;;;;;;;31.31;59.89;101196.06;4971748;28;65724;-38
2023/12/18 03:39:47;;;;;;;20.50;16.10;;;;;;;31.30;59.66;101192.53;4970448;28;70313;-38
2023/12/18 03:42:17;;;;;;;20.77;16.38;;;;;;;31.39;59.97;101195.84;4951947;28;66382;-38
2023/12/18 03:44:47;;;;;;;19.30;15.02;;;;;;;31.42;59.95;101191.88;4964456;28;70630;-38
2023/12/18 03:47:17;;;;;;;18.77;15.40;;;;;;;31.43;59.43;101188.97;4969908;28;65439;-38
2023/12/18 03:49:47;;;;;;;17.58;15.27;;;;;;;31.45;59.66;101178.72;4971363;28;70098;-38
2023/12/18 03:52:17;;;;;;;20.45;15.35;;;;;;;31.46;59.98;101172.25;4974773;28;65975;-39
2023/12/18 03:54:46;;;;;;;16.98;15.15;;;;;;;31.49;59.70;101171.81;4963521;28;70650;-38
2023/12/18 03:57:17;;;;;;;15.27;13.93;;;;;;;31.47;59.72;101159.53;4970642;28;65694;-38
2023/12/18 03:59:47;;;;;;;19.20;14.57;;;;;;;31.53;59.85;101167.63;4969399;28;70404;-38
2023/12/18 04:02:17;;;;;;;16.88;14.30;;;;;;;31.56;59.65;101166.34;4974019;28;66923;-39
2023/12/18 04:04:47;;;;;;;22.20;15.30;;;;;;;31.49;59.50;101143.88;4968992;28;70101;-38
2023/12/18 04:07:17;;;;;;;16.05;14.45;;;;;;;31.59;59.76;101161.34;4958531;28;65507;-39
2023/12/18 04:09:47;;;;;;;14.75;13.35;;;;;;;31.59;59.55;101158.63;4955871;28;70257;-39
2023/12/18 04:12:17;;;;;;;18.23;14.57;;;;;;;31.65;59.66;101153.34;4962214;28;66276;-38
2023/12/18 04:14:47;;;;;;;16.38;14.77;;;;;;;31.57;59.63;101130.91;4957215;28;70273;-39
2023/12/18 04:17:17;;;;;;;19.48;14.07;;;;;;;31.58;59.51;101124.41;4948926;28;66622;-39
2023/12/18 04:19:47;;;;;;;15.98;14.32;;;;;;;31.68;59.62;101137.50;4963867;28;69513;-38
2023/12/18 04:22:17;;;;;;;16.35;13.80;;;;;;;31.68;59.46;101125.78;4979646;28;66569;-38
2023/12/18 04:24:47;;;;;;;16.10;13.70;;;;;;;31.75;59.61;101129.31;4964004;28;69615;-39
2023/12/18 04:27:17;;;;;;;15.75;13.27;;;;;;;31.77;59.67;101124.50;4962900;28;66349;-38
2023/12/18 04:29:47;;;;;;;15.52;13.85;;;;;;;31.68;59.46;101104.09;4964548;28;70930;-37
2023/12/18 04:32:18;;;;;;;16.10;13.57;;;;;;;31.80;59.80;101116.75;4969627;28;66546;-38
2023/12/18 04:34:48;;;;;;;15.00;13.40;;;;;;;31.81;59.19;101114.84;4975087;28;70492;-39
2023/12/18 04:37:18;;;;;;;16.58;13.60;;;;;;;31.87;59.58;101122.09;4937464;28;65593;-39
2023/12/18 04:39:48;;;;;;;16.67;13.40;;;;;;;31.89;59.42;101111.03;4971601;28;70394;-38
2023/12/18 04:42:18;;;;;;;14.80;13.30;;;;;;;31.91;59.03;101098.09;4946358;28;66028;-38
2023/12/18 04:44:49;;;;;;;14.18;12.65;;;;;;;31.92;59.50;101097.88;4971147;28;70212;-38
2023/12/18 04:47:19;;;;;;;16.20;13.32;;;;;;;31.94;59.28;101103.91;4961564;28;65692;-38
2023/12/18 04:49:49;;;;;;;14.65;13.15;;;;;;;31.97;59.32;101091.81;4971225;28;70294;-38
2023/12/18 04:52:19;;;;;;;15.25;13.10;;;;;;;31.86;59.13;101071.63;4975472;28;65340;-38
2023/12/18 04:54:49;;;;;;;13.82;12.73;;;;;;;32.00;59.21;101097.59;4969732;28;70401;-39
2023/12/18 04:57:20;;;;;;;13.73;12.32;;;;;;;32.04;59.39;101098.84;4965240;28;65952;-38
2023/12/18 04:59:50;;;;;;;15.25;13.10;;;;;;;32.05;59.07;101083.38;4972261;28;70547;-38
2023/12/18 05:02:20;;;;;;;15.15;12.75;;;;;;;32.08;59.21;101082.94;4962109;28;66525;-38
2023/12/18 05:04:50;;;;;;;12.82;11.45;;;;;;;31.96;59.19;101053.00;4975332;28;69740;-38
2023/12/18 05:07:20;;;;;;;13.68;12.15;;;;;;;32.11;59.14;101070.78;4972801;28;66825;-38
2023/12/18 05:09:50;;;;;;;14.27;12.45;;;;;;;32.11;59.04;101066.19;4973285;28;70447;-38
2023/12/18 05:12:21;;;;;;;14.43;12.57;;;;;;;32.15;58.98;101066.56;4961067;28;66590;-38
2023/12/18 05:14:51;;;;;;;14.23;12.23;;;;;;;32.04;59.23;101049.16;4962159;28;70128;-38
2023/12/18 05:17:21;;;;;;;12.98;11.65;;;;;;;32.16;59.08;101052.78;4945905;28;66221;-39
2023/12/18 05:19:51;;;;;;;14.20;11.68;;;;;;;32.17;59.07;101042.75;4973364;28;70198;-38
2023/12/18 05:22:21;;;;;;;12.95;11.68;;;;;;;32.19;59.30;101043.38;4961913;28;65425;-38
2023/12/18 05:24:51;;;;;;;12.80;11.45;;;;;;;32.21;59.01;101043.97;4962266;28;69059;-38
2023/12/18 05:27:22;;;;;;;14.00;11.57;;;;;;;32.21;58.94;101035.84;4944154;28;65731;-38
2023/12/18 05:29:52;;;;;;;12.32;11.27;;;;;;;32.13;59.22;101014.41;4943126;28;69642;-38
2023/12/18 05:32:23;;;;;;;13.68;11.77;;;;;;;32.25;58.96;101023.44;4966515;28;65721;-38
2023/12/18 05:34:54;;;;;;;12.07;10.82;;;;;;;32.25;58.69;101007.16;4958748;28;70368;-38
2023/12/18 05:37:24;;;;;;;13.10;11.95;;;;;;;32.26;58.85;101009.66;4946230;28;65252;-38
2023/12/18 05:39:54;;;;;;;11.70;10.70;;;;;;;32.28;58.89;100995.84;4978074;28;70476;-38
2023/12/18 05:42:24;;;;;;;12.13;11.05;;;;;;;32.27;58.79;100983.34;4967213;28;65708;-38
2023/12/18 05:44:55;;;;;;;11.88;10.65;;;;;;;32.32;58.88;100991.66;4969763;28;70933;-39
2023/12/18 05:47:25;;;;;;;14.60;10.35;;;;;;;32.32;58.76;100980.78;4964533;28;66091;-38
2023/12/18 05:49:55;;;;;;;13.63;10.50;;;;;;;32.21;58.96;100955.22;4951830;28;69896;-37
2023/12/18 05:52:27;;;;;;;12.15;11.05;;;;;;;32.36;58.77;100976.53;4959903;28;66359;-38
2023/12/18 05:54:57;;;;;;;15.73;11.03;;;;;;;32.36;58.74;100970.28;4968327;28;69951;-38
2023/12/18 05:57:27;;;;;;;11.10;10.07;;;;;;;32.37;58.70;100966.50;4971516;28;66675;-39
2023/12/18 05:59:57;;;;;;;10.82;9.98;;;;;;;32.40;58.62;100966.91;4962980;28;70271;-39
2023/12/18 06:02:28;;;;;;;11.00;10.00;;;;;;;32.41;58.68;100957.69;4966256;28;66662;-39
2023/12/18 06:04:58;;;;;;;11.10;10.00;;;;;;;32.35;58.79;100939.59;4973541;28;70628;-38
2023/12/18 06:07:29;;;;;;;11.63;10.57;;;;;;;32.46;58.55;100948.91;4965390;28;66162;-39
2023/12/18 06:09:59;;;;;;;12.48;9.25;;;;;;;32.44;58.83;100929.25;4962971;28;69930;-38
2023/12/18 06:12:29;;;;;;;10.82;9.90;;;;;;;32.48;58.49;100931.31;4971036;28;66603;-38
2023/12/18 06:14:59;;;;;;;9.88;9.00;;;;;;;32.52;58.52;100936.28;4963735;28;69308;-38
2023/12/18 06:17:30;;;;;;;9.40;8.68;;;;;;;32.51;58.74;100930.00;4957312;28;65984;-38
2023/12/18 06:20:01;;;;;;;10.13;9.15;;;;;;;32.47;58.79;100912.53;4948005;28;68182;-38
2023/12/18 06:22:31;;;;;;;10.48;9.38;;;;;;;32.54;58.44;100915.13;4952350;28;66306;-39
2023/12/18 06:25:03;;;;;;;9.65;8.82;;;;;;;31.81;58.23;100792.06;4965593;28;70294;-38
2023/12/18 06:27:33;;;;;;;12.23;9.32;;;;;;;32.55;58.52;100908.66;4950992;28;66948;-38
2023/12/18 06:30:04;;;;;;;10.23;9.40;;;;;;;32.60;58.54;100909.63;4968982;28;69458;-38
2023/12/18 06:32:35;;;;;;;9.77;9.05;;;;;;;32.49;58.57;100894.94;4976059;28;65642;-38
2023/12/18 06:35:05;;;;;;;12.00;9.93;;;;;;;32.60;58.48;100906.91;4951236;28;69982;-38
2023/12/18 06:37:36;;;;;;;10.38;9.32;;;;;;;32.63;58.41;100905.63;4957647;28;66224;-38
2023/12/18 06:40:07;;;;;;;9.65;8.90;;;;;;;32.55;58.17;100881.50;4926339;28;70075;-39
2023/12/18 06:42:36;;;;;;;9.95;8.95;;;;;;;32.67;58.40;100894.03;4947117;28;66721;-39
2023/12/18 06:45:07;;;;;;;9.60;8.75;;;;;;;32.66;58.50;100892.41;4955059;28;69713;-38
2023/12/18 06:47:37;;;;;;;9.18;8.38;;;;;;;32.70;58.28;100879.16;4955018;28;65825;-38
2023/12/18 06:50:07;;;;;;;10.25;9.30;;;;;;;32.70;58.32;100885.44;4950983;28;70446;-38
2023/12/18 06:52:38;;;;;;;9.63;8.82;;;;;;;32.72;58.30;100882.50;4968001;28;65977;-38
2023/12/18 06:55:09;;;;;;;8.97;8.03;;;;;;;32.66;58.41;100867.13;4958463;28;70797;-40
2023/12/18 06:57:38;;;;;;;9.02;8.30;;;;;;;32.74;58.41;100874.94;4952254;28;66995;-39
2023/12/18 07:00:09;;;;;;;9.35;8.52;;;;;;;32.78;58.07;100869.88;4966435;28;69862;-38
2023/12/18 07:02:39;;;;;;;9.32;8.48;;;;;;;32.77;58.37;100869.03;4965567;28;65469;-39
2023/12/18 07:05:10;;;;;;;8.63;8.02;;;;;;;32.69;58.47;100850.38;4946126;28;69964;-39
2023/12/18 07:07:40;;;;;;;9.15;8.35;;;;;;;32.84;58.22;100863.50;4964853;28;65995;-39
2023/12/18 07:10:10;;;;;;;8.02;7.43;;;;;;;32.83;58.43;100856.41;4955986;28;70396;-38
2023/12/18 07:12:40;;;;;;;8.77;8.10;;;;;;;32.85;58.19;100860.56;4964665;28;66364;-39
2023/12/18 07:15:11;;;;;;;9.07;8.38;;;;;;;32.88;57.92;100859.25;4964987;28;69584;-38
2023/12/18 07:17:41;;;;;;;9.25;8.38;;;;;;;32.90;58.13;100852.53;4954067;28;66591;-39
2023/12/18 07:20:12;;;;;;;9.35;8.52;;;;;;;32.90;58.24;100852.53;4945956;28;69117;-39
2023/12/18 07:22:42;;;;;;;8.43;7.72;;;;;;;32.53;58.00;100786.69;4945287;28;66463;-38
2023/12/18 07:25:13;;;;;;;9.65;8.70;;;;;;;32.93;58.12;100846.63;4963549;28;69812;-38
2023/12/18 07:27:44;;;;;;;9.07;8.05;;;;;;;32.96;57.99;100844.47;4957108;28;66219;-38
2023/12/18 07:30:15;;;;;;;9.05;8.25;;;;;;;32.96;58.04;100839.03;4969041;28;69781;-38
2023/12/18 07:32:45;;;;;;;8.35;7.68;;;;;;;32.98;57.91;100828.78;4970283;28;65974;-38
2023/12/18 07:35:16;;;;;;;8.43;7.68;;;;;;;33.01;57.82;100826.44;4970813;28;69876;-38
2023/12/18 07:37:45;;;;;;;8.30;7.65;;;;;;;33.04;57.81;100830.56;4950121;28;66036;-38
2023/12/18 07:40:15;;;;;;;8.32;7.72;;;;;;;33.03;57.81;100834.38;4973124;28;70540;-38
2023/12/18 07:42:45;;;;;;;7.55;7.05;;;;;;;33.01;58.05;100825.63;4967764;28;66305;-38
2023/12/18 07:45:15;;;;;;;7.82;7.32;;;;;;;33.03;57.68;100828.94;4952200;28;70152;-38
2023/12/18 07:47:46;;;;;;;8.95;8.05;;;;;;;33.07;58.14;100830.09;4960266;28;66156;-38
2023/12/18 07:50:16;;;;;;;7.30;6.70;;;;;;;33.11;57.71;100831.28;4970313;28;70227;-38
2023/12/18 07:52:46;;;;;;;7.80;7.30;;;;;;;33.00;57.58;100808.50;4943397;28;65191;-38
2023/12/18 07:55:16;;;;;;;8.18;7.47;;;;;;;33.12;57.71;100827.50;4969876;28;70132;-38
2023/12/18 07:57:46;;;;;;;7.65;6.97;;;;;;;33.13;57.67;100823.75;4974911;28;66031;-38
2023/12/18 08:00:17;;;;;;;8.05;7.25;;;;;;;33.14;57.71;100825.38;4966789;28;69967;-38
2023/12/18 08:02:47;;;;;;;7.43;6.80;;;;;;;33.17;57.64;100829.53;4946217;28;66602;-38
2023/12/18 08:05:17;;;;;;;6.97;6.47;;;;;;;33.18;57.47;100823.00;4966813;28;70242;-38
2023/12/18 08:07:47;;;;;;;7.80;7.20;;;;;;;33.13;57.46;100812.88;4970013;28;65697;-38
2023/12/18 08:10:18;;;;;;;8.10;7.32;;;;;;;33.19;57.67;100822.78;4970913;28;70503;-38
2023/12/18 08:12:49;;;;;;;7.32;6.68;;;;;;;33.04;57.63;100798.81;4955305;28;65600;-38
2023/12/18 08:15:19;;;;;;;7.40;6.70;;;;;;;33.21;57.41;100819.81;4969215;28;70625;-38
2023/12/18 08:17:49;;;;;;;7.80;7.05;;;;;;;33.23;57.39;100818.50;4956042;28;66761;-38
2023/12/18 08:20:19;;;;;;;7.32;6.72;;;;;;;33.23;57.57;100818.50;4960325;28;69760;-38
2023/12/18 08:22:49;;;;;;;7.63;6.93;;;;;;;33.24;57.31;100813.91;4963569;28;65797;-38
2023/12/18 08:25:21;;;;;;;6.82;6.30;;;;;;;33.27;57.38;100825.16;4967645;28;70961;-38
2023/12/18 08:27:51;;;;;;;7.13;6.45;;;;;;;33.27;57.86;100819.69;4949515;28;66046;-38
2023/12/18 08:30:21;;;;;;;7.38;6.75;;;;;;;33.26;57.39;100815.31;4962989;28;70215;-38
2023/12/18 08:32:52;;;;;;;6.78;6.25;;;;;;;33.29;57.28;100831.19;4970725;28;66907;-38
2023/12/18 08:35:22;;;;;;;7.63;6.30;;;;;;;33.30;57.23;100819.22;4968650;28;70256;-38
2023/12/18 08:37:52;;;;;;;6.88;6.28;;;;;;;33.32;57.34;100817.09;4960334;28;66871;-38
2023/12/18 08:40:22;;;;;;;6.88;6.40;;;;;;;33.28;57.23;100810.47;4964742;28;70726;-38
2023/12/18 08:42:52;;;;;;;7.13;6.60;;;;;;;33.33;57.37;100813.31;4939221;28;65949;-38
2023/12/18 08:45:22;;;;;;;6.60;6.10;;;;;;;33.34;57.15;100816.84;4963654;28;70871;-38
2023/12/18 08:47:54;;;;;;;6.22;5.82;;;;;;;33.35;57.16;100822.06;4972431;28;66933;-39
2023/12/18 08:50:24;;;;;;;;;;;;;;;33.11;57.81;100817.69;4947370;28;68973;-38
2023/12/18 08:52:54;;;;;;;6.63;6.10;;;;;;;33.30;57.42;100829.28;4946304;28;65678;-39
2023/12/18 08:55:24;;;;;;;8.23;6.53;;;;;;;33.36;57.13;100826.41;4958334;28;70106;-39
2023/12/18 08:57:54;;;;;;;7.32;6.47;;;;;;;33.37;57.21;100822.63;4965038;28;66583;-38
2023/12/18 09:00:25;;;;;;;7.03;6.38;;;;;;;33.40;57.31;100817.78;4950964;28;69243;-39
2023/12/18 09:02:55;;;;;;;6.20;5.65;;;;;;;33.38;57.36;100829.75;4947948;28;66962;-39
2023/12/18 09:05:26;;;;;;;6.07;5.68;;;;;;;33.43;57.20;100828.19;4972600;28;70133;-39
2023/12/18 09:07:56;;;;;;;6.30;5.85;;;;;;;33.40;57.10;100820.50;4973166;28;66116;-38
2023/12/18 09:10:26;;;;;;;6.45;5.90;;;;;;;33.42;57.17;100831.97;4962698;28;70606;-39
2023/12/18 09:12:56;;;;;;;8.38;5.75;;;;;;;33.38;57.12;100821.56;4958126;28;65259;-39
2023/12/18 09:15:26;;;;;;;5.35;4.95;;;;;;;33.44;56.99;100835.28;4945218;28;69872;-39
2023/12/18 09:17:56;;;;;;;5.63;5.13;;;;;;;33.35;57.48;100832.13;4952248;28;66609;-38
2023/12/18 09:20:27;;;;;;;5.90;5.30;;;;;;;33.00;57.13;100830.22;4948111;28;70600;-39
2023/12/18 09:22:57;;;;;;;5.85;5.45;;;;;;;32.90;57.17;100830.81;4975110;28;67072;-39
2023/12/18 09:25:27;;;;;;;7.22;6.00;;;;;;;32.80;56.78;100844.13;4969004;28;70478;-39
2023/12/18 09:27:57;;;;;;;7.15;5.03;;;;;;;32.80;56.73;100841.41;4962410;28;65965;-40
2023/12/18 09:30:27;;;;;;;6.65;5.50;;;;;;;32.72;56.37;100841.75;4954277;28;70175;-39
2023/12/18 09:32:57;;;;;;;18.50;5.78;;;;;;;32.88;56.67;100838.34;4967397;28;67386;-40
2023/12/18 09:35:28;;;;;;;11.07;5.38;;;;;;;33.09;56.68;100849.72;4966836;28;69340;-40
2023/12/18 09:37:58;;;;;;;11.63;4.90;;;;;;;33.17;57.06;100852.09;4962030;28;66549;-40
2023/12/18 09:40:29;;;;;;;10.32;5.35;;;;;;;33.21;56.68;100853.28;4977412;28;70688;-40
2023/12/18 09:43:02;;;;;;;9.43;5.40;;;;;;;33.26;56.98;100861.53;4949781;28;65905;-40
2023/12/18 09:45:32;;;;;;;7.45;4.80;;;;;;;33.33;56.63;100864.97;4961946;28;69550;-39
2023/12/18 09:48:02;;;;;;;10.48;5.55;;;;;;;33.36;56.98;100861.75;4963285;28;66826;-39
2023/12/18 09:50:33;;;;;;;8.77;5.20;;;;;;;33.39;57.01;100865.91;4975194;28;69016;-39
2023/12/18 09:53:08;;;;;;;7.55;5.63;;;;;;;33.04;56.96;100820.56;4960824;28;66528;-39
2023/12/18 09:55:40;;;;;;;8.13;5.53;;;;;;;32.99;56.90;100803.25;4964562;28;70003;-39
2023/12/18 09:58:13;;;;;;;;;;;;;;;33.19;58.14;100879.88;4932238;28;66271;-39
2023/12/18 10:00:43;;;;;;;7.20;5.10;;;;;;;33.42;57.33;100892.63;4961909;28;69507;-38
2023/12/18 10:03:16;;;;;;;9.00;6.30;;;;;;;33.42;57.18;100891.78;4964986;28;65610;-39
2023/12/18 10:05:47;;;;;;;9.07;6.43;;;;;;;33.46;57.15;100892.97;4953840;28;69097;-39
2023/12/18 10:08:17;;;;;;;8.98;5.90;;;;;;;33.47;57.04;100894.63;4967649;28;66283;-39
2023/12/18 10:10:47;;;;;;;17.88;5.47;;;;;;;33.48;57.44;100896.28;4971443;28;69916;-39
2023/12/18 10:13:17;;;;;;;9.63;6.28;;;;;;;33.17;59.19;100895.56;4971214;28;65622;-38
2023/12/18 10:15:48;;;;;;;15.98;7.00;;;;;;;32.98;60.69;100900.25;4977353;28;70087;-38
2023/12/18 10:18:21;;;;;;;7.20;6.50;;;;;;;32.94;60.58;100897.19;4964259;28;65936;-39
2023/12/18 10:20:52;;;;;;;8.77;6.22;;;;;;;32.86;62.41;100900.22;4968190;28;69932;-38
2023/12/18 10:23:24;;;;;;;9.25;6.13;;;;;;;32.86;61.87;100907.56;4972825;28;66769;-38
2023/12/18 10:25:54;;;;;;;15.18;6.97;;;;;;;32.80;62.57;100909.31;4961977;28;69859;-37
2023/12/18 10:28:24;;;;;;;6.60;6.10;;;;;;;32.75;63.50;100908.38;4976676;28;65826;-37
2023/12/18 10:30:56;;;;;;;12.18;6.60;;;;;;;32.74;62.88;100910.25;4972116;28;69995;-38
2023/12/18 10:33:28;;;;;;;7.53;6.82;;;;;;;32.70;63.98;100906.34;4957649;28;65120;-37
2023/12/18 10:36:00;;;;;;;7.57;6.88;;;;;;;32.37;63.63;100852.50;4965599;28;69689;-38
2023/12/18 10:38:34;;;;;;;10.95;7.60;;;;;;;32.68;64.02;100908.44;4981307;28;64846;-39
2023/12/18 10:41:05;;;;;;;7.93;7.25;;;;;;;32.65;64.82;100914.34;4976849;28;69313;-39
2023/12/18 10:43:37;;;;;;;10.88;7.07;;;;;;;32.67;63.18;100909.53;4954758;28;65534;-37
2023/12/18 10:46:10;;;;;;;8.57;7.75;;;;;;;32.63;64.58;100906.44;4954676;28;69594;-38
2023/12/18 10:48:42;;;;;;;9.88;7.80;;;;;;;32.65;64.80;100922.50;4953718;28;66477;-38
2023/12/18 10:51:13;;;;;;;15.00;8.00;;;;;;;32.67;64.56;100917.66;4961693;28;69525;-37
2023/12/18 10:53:45;;;;;;;10.35;7.53;;;;;;;32.64;64.48;100918.13;4976543;28;66324;-37
2023/12/18 10:56:17;;;;;;;9.27;8.25;;;;;;;31.96;64.77;100818.84;4970474;28;70020;-38
2023/12/18 10:58:49;;;;;;;8.70;7.93;;;;;;;32.54;64.83;100907.84;4972314;28;66413;-38
2023/12/18 11:01:20;;;;;;;9.93;8.98;;;;;;;32.66;64.43;100929.59;4979286;28;69538;-37
2023/12/18 11:03:52;;;;;;;10.27;8.93;;;;;;;32.59;64.83;100932.41;4975018;28;66167;-38
2023/12/18 11:06:24;;;;;;;10.27;9.35;;;;;;;32.67;63.78;100925.81;4977960;28;69288;-37
2023/12/18 11:08:54;;;;;;;11.75;9.18;;;;;;;32.89;62.43;100924.22;4970924;28;66533;-37
2023/12/18 11:11:25;;;;;;;8.88;7.80;;;;;;;33.01;61.83;100929.69;4980805;28;70104;-37
2023/12/18 11:14:25;;;;;;;8.07;7.38;;;;;;;33.03;62.06;100948.50;4948858;28;66765;-37
2023/12/18 11:17:26;;;;;;;8.55;7.72;;;;;;;33.12;61.55;100947.09;4955519;28;69683;-38
2023/12/18 11:20:37;;;;;;;9.77;8.05;;;;;;;33.03;62.48;100960.19;4936638;28;64577;-38
2023/12/18 11:23:09;;;;;;;12.18;8.02;;;;;;;33.20;61.27;100963.06;4919868;28;70048;-38
2023/12/18 11:25:44;;;;;;;8.27;7.47;;;;;;;32.95;61.27;100919.75;4950967;28;65872;-38
2023/12/18 11:28:15;;;;;;;9.57;7.82;;;;;;;33.24;61.35;100966.97;4964853;28;70515;-38
2023/12/18 11:30:46;;;;;;;9.50;7.75;;;;;;;33.26;61.50;100970.28;4944849;28;65908;-38
2023/12/18 11:33:16;;;;;;;9.30;8.48;;;;;;;33.23;61.53;100962.59;4958473;28;68988;-37